Time;durP1;ratioP1;P1;durP2;ratioP2;P2;SDS_P1;SDS_P2;PMS_P1;PMS_P2;Temp;Humidity;BMP_temperature;BMP_pressure;BME280_temperature;BME280_humidity;BME280_pressure;Samples;Min_cycle;Max_cycle;Signal;HPM_P1;HPM_P2
2022/12/21 00:03:15;;;;;;;18.70;8.07;;;;;9.10;100545.00;;;;9829786;30;20284;-78
2022/12/21 00:08:17;;;;;;;16.10;8.00;;;;;9.00;100551.00;;;;9823352;30;20546;-77
2022/12/21 00:13:19;;;;;;;14.77;8.37;;;;;9.00;100544.00;;;;9831032;30;20205;-77
2022/12/21 00:18:20;;;;;;;18.23;10.27;;;;;9.00;100536.00;;;;9817226;30;20254;-77
2022/12/21 00:23:22;;;;;;;20.17;10.67;;;;;9.00;100541.00;;;;9845744;30;20940;-78
2022/12/21 00:28:24;;;;;;;22.03;11.93;;;;;9.00;100534.00;;;;9830261;30;20659;-79
2022/12/21 00:33:26;;;;;;;21.80;10.60;;;;;9.00;100542.00;;;;9825874;30;20209;-78
2022/12/21 00:38:30;;;;;;;22.90;12.00;;;;;9.00;100533.00;;;;9844706;30;20870;-78
2022/12/21 00:43:34;;;;;;;28.80;12.83;;;;;9.00;100523.00;;;;9838208;30;20200;-77
2022/12/21 00:48:36;;;;;;;28.03;13.70;;;;;9.00;100521.00;;;;9843976;30;20208;-77
2022/12/21 00:53:39;;;;;;;27.17;13.87;;;;;9.00;100526.00;;;;9823380;30;20658;-78
2022/12/21 00:58:41;;;;;;;30.33;14.40;;;;;9.00;100527.00;;;;9815257;30;20735;-79
2022/12/21 01:03:43;;;;;;;32.07;14.73;;;;;9.00;100521.00;;;;9828762;30;20196;-78
2022/12/21 01:08:46;;;;;;;27.67;14.20;;;;;9.00;100525.00;;;;9846936;30;20227;-79
2022/12/21 01:13:51;;;;;;;32.70;16.50;;;;;9.00;100528.00;;;;9837480;30;20212;-77
2022/12/21 01:18:53;;;;;;;30.47;15.33;;;;;9.00;100524.00;;;;9827237;30;20232;-77
2022/12/21 01:23:56;;;;;;;30.00;14.73;;;;;9.00;100521.00;;;;9836656;30;20339;-77
2022/12/21 01:28:58;;;;;;;29.90;14.33;;;;;9.00;100533.00;;;;9823522;30;20946;-78
2022/12/21 01:34:00;;;;;;;27.50;13.83;;;;;9.00;100530.00;;;;9836538;30;20208;-77
2022/12/21 01:39:05;;;;;;;26.10;12.93;;;;;8.90;100540.00;;;;9865095;30;20295;-78
2022/12/21 01:44:51;;;;;;;23.00;12.67;;;;;8.80;100554.00;;;;9846775;30;20211;-79
2022/12/21 01:50:01;;;;;;;26.47;12.13;;;;;8.80;100573.00;;;;9834471;30;20196;-77
2022/12/21 01:55:05;;;;;;;27.20;12.70;;;;;8.70;100566.00;;;;9796064;30;20284;-78
2022/12/21 02:00:10;;;;;;;23.03;12.17;;;;;8.70;100568.00;;;;9832606;30;20746;-79
2022/12/21 02:05:28;;;;;;;22.47;11.60;;;;;8.70;100568.00;;;;9859583;30;20281;-80
2022/12/21 02:10:32;;;;;;;26.17;12.67;;;;;8.60;100571.00;;;;9846160;30;20196;-80
2022/12/21 02:15:55;;;;;;;26.70;12.73;;;;;8.60;100565.00;;;;9846186;30;20201;-79
2022/12/21 02:21:15;;;;;;;34.13;13.27;;;;;8.60;100561.00;;;;9829487;30;20251;-79
2022/12/21 02:26:41;;;;;;;26.20;13.53;;;;;8.60;100573.00;;;;9815308;30;20291;-79
2022/12/21 02:32:11;;;;;;;20.53;11.63;;;;;8.60;100574.00;;;;9815331;30;20220;-78
2022/12/21 02:37:33;;;;;;;21.97;12.00;;;;;8.60;100573.00;;;;9831493;30;20211;-78
2022/12/21 02:48:31;;;;;;;25.57;12.33;;;;;8.50;100562.00;;;;9844557;30;20214;-78
2022/12/21 02:53:36;;;;;;;28.30;13.47;;;;;8.50;100553.00;;;;9798938;30;20224;-78
2022/12/21 02:58:38;;;;;;;23.13;12.13;;;;;8.50;100540.00;;;;9824994;30;20201;-78
2022/12/21 03:03:53;;;;;;;23.47;11.87;;;;;8.40;100523.00;;;;9808565;30;20649;-78
2022/12/21 03:09:35;;;;;;;21.57;10.07;;;;;8.40;100538.00;;;;9845098;30;20642;-78
2022/12/21 03:15:02;;;;;;;19.63;8.57;;;;;8.30;100530.00;;;;9838732;30;20215;-79
2022/12/21 03:20:39;;;;;;;19.93;9.13;;;;;8.30;100524.00;;;;9814877;30;20201;-78
2022/12/21 03:26:08;;;;;;;19.60;9.50;;;;;8.20;100526.00;;;;9843907;30;20199;-78
2022/12/21 03:31:16;;;;;;;19.83;9.60;;;;;8.20;100526.00;;;;9813980;30;20236;-78
2022/12/21 03:36:28;;;;;;;21.60;9.40;;;;;8.20;100520.00;;;;9828254;30;20208;-79
2022/12/21 03:41:56;;;;;;;22.27;9.33;;;;;8.20;100535.00;;;;9806901;30;20205;-79
2022/12/21 03:47:01;;;;;;;20.50;8.73;;;;;8.20;100538.00;;;;9822178;30;20213;-79
2022/12/21 03:52:25;;;;;;;20.33;9.03;;;;;8.10;100533.00;;;;9792449;30;20228;-79
2022/12/21 03:57:28;;;;;;;20.73;9.23;;;;;8.10;100526.00;;;;9802437;30;20197;-78
2022/12/21 04:02:39;;;;;;;20.70;9.40;;;;;8.10;100528.00;;;;9812623;30;20193;-78
2022/12/21 04:07:42;;;;;;;22.07;8.97;;;;;8.00;100522.00;;;;9825212;30;20609;-78
2022/12/21 04:12:46;;;;;;;14.77;7.83;;;;;8.00;100517.00;;;;9828995;30;20217;-78
2022/12/21 04:17:51;;;;;;;17.77;8.23;;;;;8.00;100523.00;;;;9810975;30;20204;-78
2022/12/21 04:28:25;;;;;;;18.53;7.80;;;;;8.00;100520.00;;;;9841911;30;20744;-78
2022/12/21 04:33:48;;;;;;;22.67;8.17;;;;;8.00;100509.00;;;;9852491;30;20299;-78
2022/12/21 04:38:49;;;;;;;18.70;8.37;;;;;7.90;100514.00;;;;9811858;30;20219;-78
2022/12/21 04:43:51;;;;;;;21.07;9.37;;;;;7.90;100508.00;;;;9805954;30;20204;-78
2022/12/21 04:48:53;;;;;;;18.27;8.40;;;;;7.90;100512.00;;;;9821653;30;20209;-79
2022/12/21 04:53:56;;;;;;;20.47;8.47;;;;;7.90;100510.00;;;;9827945;30;20215;-78
2022/12/21 04:58:58;;;;;;;17.83;8.17;;;;;7.90;100520.00;;;;9829104;30;20201;-78
2022/12/21 05:04:00;;;;;;;20.90;9.23;;;;;7.90;100500.00;;;;9813148;30;20295;-78
2022/12/21 05:09:03;;;;;;;20.73;8.90;;;;;7.90;100504.00;;;;9827973;30;20223;-78
2022/12/21 05:14:05;;;;;;;28.20;11.03;;;;;7.90;100495.00;;;;9827232;30;20220;-78
2022/12/21 05:19:07;;;;;;;25.87;9.43;;;;;7.80;100489.00;;;;9813870;30;20586;-78
2022/12/21 05:24:08;;;;;;;23.47;8.40;;;;;7.80;100494.00;;;;9844036;30;20220;-78
2022/12/21 05:29:10;;;;;;;19.80;9.07;;;;;7.80;100493.00;;;;9855266;30;20652;-78
2022/12/21 05:34:12;;;;;;;24.93;9.23;;;;;7.80;100496.00;;;;9826540;30;20723;-78
2022/12/21 05:39:14;;;;;;;23.87;7.93;;;;;7.80;100489.00;;;;9840267;30;20204;-78
2022/12/21 05:44:16;;;;;;;22.27;7.83;;;;;7.80;100519.00;;;;9827175;30;20195;-78
2022/12/21 05:49:18;;;;;;;16.37;6.40;;;;;7.80;100514.00;;;;9824604;30;20197;-78
2022/12/21 05:54:20;;;;;;;16.07;7.33;;;;;7.90;100507.00;;;;9791369;30;20580;-78
2022/12/21 05:59:22;;;;;;;14.67;6.27;;;;;7.90;100496.00;;;;9822670;30;20290;-78
2022/12/21 06:04:24;;;;;;;13.40;5.57;;;;;7.90;100497.00;;;;9834873;30;20327;-78
2022/12/21 06:09:26;;;;;;;12.33;5.97;;;;;7.80;100499.00;;;;9863642;30;20647;-78
2022/12/21 06:14:28;;;;;;;16.10;5.63;;;;;7.80;100497.00;;;;9849248;30;20208;-78
2022/12/21 06:19:30;;;;;;;13.90;4.50;;;;;7.80;100497.00;;;;9817597;30;20279;-78
2022/12/21 06:24:32;;;;;;;8.37;4.50;;;;;7.70;100516.00;;;;9835499;30;20192;-77
2022/12/21 06:29:34;;;;;;;10.37;4.47;;;;;7.70;100510.00;;;;9819587;30;20598;-77
2022/12/21 06:34:36;;;;;;;12.23;5.37;;;;;7.60;100510.00;;;;9858958;30;20307;-79
2022/12/21 06:39:38;;;;;;;8.43;4.87;;;;;7.50;100514.00;;;;9848803;30;20204;-79
2022/12/21 06:44:40;;;;;;;14.70;5.23;;;;;7.40;100517.00;;;;9833225;30;20250;-80
2022/12/21 06:49:42;;;;;;;16.27;6.07;;;;;7.40;100537.00;;;;9830558;30;20274;-77
2022/12/21 06:54:50;;;;;;;14.07;5.47;;;;;7.40;100526.00;;;;9821171;30;20605;-77
2022/12/21 06:59:52;;;;;;;20.40;5.63;;;;;7.40;100544.00;;;;9833664;30;20264;-78
2022/12/21 07:04:54;;;;;;;17.63;6.37;;;;;7.40;100553.00;;;;9847953;30;20236;-77
2022/12/21 07:09:56;;;;;;;15.10;6.63;;;;;7.40;100555.00;;;;9818615;30;20291;-77
2022/12/21 07:14:57;;;;;;;18.73;6.57;;;;;7.40;100575.00;;;;9784778;30;20248;-77
2022/12/21 07:19:59;;;;;;;25.60;8.10;;;;;7.50;100570.00;;;;9810657;30;20232;-77
2022/12/21 07:25:01;;;;;;;20.77;8.90;;;;;7.50;100568.00;;;;9817255;30;20296;-78
2022/12/21 07:30:03;;;;;;;22.80;9.87;;;;;7.60;100576.00;;;;9808319;30;20866;-78
2022/12/21 07:35:06;;;;;;;25.80;10.73;;;;;7.60;100586.00;;;;9810846;30;20229;-78
2022/12/21 07:40:09;;;;;;;25.00;10.60;;;;;7.60;100594.00;;;;9795963;30;20673;-77
2022/12/21 07:45:11;;;;;;;22.47;9.97;;;;;7.50;100588.00;;;;9822102;30;20201;-79
2022/12/21 07:50:16;;;;;;;26.93;10.37;;;;;7.50;100594.00;;;;9832272;30;20683;-79
2022/12/21 07:55:18;;;;;;;22.17;10.40;;;;;7.60;100595.00;;;;9822179;30;20215;-78
2022/12/21 08:00:23;;;;;;;32.23;10.60;;;;;7.60;100593.00;;;;9824574;30;20688;-79
2022/12/21 08:05:25;;;;;;;24.60;11.10;;;;;7.60;100580.00;;;;9811690;30;20237;-79
2022/12/21 08:10:27;;;;;;;29.07;10.60;;;;;7.60;100591.00;;;;9804957;30;20664;-78
2022/12/21 08:15:29;;;;;;;27.13;11.23;;;;;7.50;100591.00;;;;9831819;30;20208;-78
2022/12/21 08:20:31;;;;;;;25.07;11.37;;;;;7.50;100600.00;;;;9836253;30;20210;-79
2022/12/21 08:25:32;;;;;;;25.77;11.73;;;;;7.50;100624.00;;;;9833554;30;20205;-77
2022/12/21 08:30:34;;;;;;;30.00;12.67;;;;;7.60;100603.00;;;;9812949;30;20205;-78
2022/12/21 08:35:37;;;;;;;34.63;12.37;;;;;7.90;100612.00;;;;9820626;30;20216;-77
2022/12/21 08:40:39;;;;;;;37.60;15.03;;;;;8.10;100600.00;;;;9825723;30;20214;-79
2022/12/21 08:45:41;;;;;;;39.70;13.50;;;;;8.20;100594.00;;;;9836001;30;20212;-77
2022/12/21 08:50:49;;;;;;;41.40;13.03;;;;;8.30;100606.00;;;;9791506;30;20289;-78
2022/12/21 08:55:52;;;;;;;31.40;11.17;;;;;8.40;100608.00;;;;9829241;30;20642;-78
2022/12/21 09:00:55;;;;;;;30.43;10.90;;;;;8.40;100619.00;;;;9814441;30;20303;-79
2022/12/21 09:05:59;;;;;;;26.93;12.37;;;;;8.50;100612.00;;;;9832424;30;20229;-79
2022/12/21 09:11:11;;;;;;;34.97;12.67;;;;;8.60;100617.00;;;;9820027;30;20208;-78
2022/12/21 09:16:19;;;;;;;29.47;10.47;;;;;8.70;100612.00;;;;9801001;30;20212;-79
2022/12/21 09:21:22;;;;;;;22.87;9.33;;;;;8.80;100606.00;;;;9833813;30;20712;-78
2022/12/21 09:26:24;;;;;;;22.20;8.20;;;;;8.90;100606.00;;;;9814249;30;20208;-79
2022/12/21 09:31:26;;;;;;;18.00;7.63;;;;;8.90;100609.00;;;;9816983;30;20284;-78
2022/12/21 09:36:28;;;;;;;19.33;8.27;;;;;9.00;100609.00;;;;9843137;30;20699;-78
2022/12/21 09:41:59;;;;;;;29.87;10.33;;;;;9.10;100619.00;;;;9819607;30;20209;-78
2022/12/21 09:47:06;;;;;;;20.77;8.47;;;;;9.30;100621.00;;;;9805806;30;20204;-78
2022/12/21 09:52:18;;;;;;;20.33;7.80;;;;;9.40;100622.00;;;;9820850;30;20219;-78
2022/12/21 09:57:20;;;;;;;22.13;8.60;;;;;9.40;100610.00;;;;9828576;30;20601;-78
2022/12/21 10:02:49;;;;;;;23.17;8.10;;;;;9.70;100614.00;;;;9814959;30;20208;-77
2022/12/21 10:08:06;;;;;;;27.27;9.37;;;;;9.80;100603.00;;;;9810098;30;20252;-78
2022/12/21 10:13:33;;;;;;;26.10;9.20;;;;;10.00;100609.00;;;;9817491;30;20236;-78
2022/12/21 10:19:00;;;;;;;17.67;9.47;;;;;10.30;100594.00;;;;9813313;30;20213;-78
2022/12/21 10:24:05;;;;;;;23.20;8.63;;;;;10.20;100614.00;;;;9835954;30;20200;-77
2022/12/21 10:29:16;;;;;;;19.37;9.37;;;;;9.80;100625.00;;;;9820264;30;20201;-77
2022/12/21 10:34:24;;;;;;;14.83;8.23;;;;;9.60;100633.00;;;;9829000;30;20224;-78
2022/12/21 10:39:26;;;;;;;17.20;8.70;;;;;9.40;100639.00;;;;9826203;30;20635;-79
2022/12/21 10:44:28;;;;;;;15.17;7.13;;;;;9.30;100641.00;;;;9835842;30;20201;-79
2022/12/21 10:49:36;;;;;;;13.13;7.03;;;;;9.40;100625.00;;;;9840461;30;20228;-77
2022/12/21 10:54:48;;;;;;;13.20;6.97;;;;;9.40;100620.00;;;;9832587;30;20216;-78
2022/12/21 10:59:50;;;;;;;19.43;7.90;;;;;9.50;100626.00;;;;9825532;30;20281;-78
2022/12/21 11:04:52;;;;;;;13.40;7.53;;;;;9.40;100627.00;;;;9817777;30;20225;-77
2022/12/21 11:09:59;;;;;;;18.30;7.67;;;;;9.50;100617.00;;;;9818234;30;20221;-78
2022/12/21 11:15:23;;;;;;;13.67;7.10;;;;;9.80;100608.00;;;;9811600;30;20714;-79
2022/12/21 11:20:48;;;;;;;13.53;6.70;;;;;9.90;100582.00;;;;9826400;30;20667;-79
2022/12/21 11:25:51;;;;;;;13.20;7.10;;;;;9.90;100579.00;;;;9829762;30;20220;-78
2022/12/21 11:31:02;;;;;;;12.90;7.60;;;;;9.90;100568.00;;;;9817321;30;20209;-78
2022/12/21 11:36:14;;;;;;;12.50;7.83;;;;;9.90;100571.00;;;;9793178;30;20307;-78
2022/12/21 11:41:22;;;;;;;14.20;7.60;;;;;10.00;100579.00;;;;9814058;30;20296;-78
2022/12/21 11:46:48;;;;;;;14.93;8.57;;;;;9.90;100559.00;;;;9839455;30;20226;-78
2022/12/21 11:52:11;;;;;;;13.43;6.97;;;;;9.80;100556.00;;;;9808345;30;20290;-77
2022/12/21 11:57:27;;;;;;;11.60;6.53;;;;;9.80;100544.00;;;;9835550;30;20607;-78
2022/12/21 12:02:54;;;;;;;14.43;6.17;;;;;9.70;100531.00;;;;9840056;30;20668;-78
2022/12/21 12:08:12;;;;;;;14.40;6.40;;;;;9.70;100518.00;;;;9822766;30;20232;-78
2022/12/21 12:13:43;;;;;;;14.07;5.60;;;;;9.60;100507.00;;;;9823457;30;20224;-78
2022/12/21 12:19:04;;;;;;;12.83;5.70;;;;;9.60;100513.00;;;;9835077;30;20239;-78
2022/12/21 12:24:34;;;;;;;11.33;6.43;;;;;9.60;100512.00;;;;9823851;30;20258;-78
2022/12/21 12:29:45;;;;;;;12.90;5.93;;;;;9.60;100514.00;;;;9844900;30;20201;-79
2022/12/21 12:35:06;;;;;;;10.13;6.23;;;;;9.70;100513.00;;;;9811458;30;20213;-77
2022/12/21 12:40:29;;;;;;;11.33;5.27;;;;;9.70;100496.00;;;;9832099;30;20671;-78
2022/12/21 12:45:43;;;;;;;9.03;3.97;;;;;9.70;100502.00;;;;9837540;30;20472;-78
2022/12/21 12:51:13;;;;;;;9.10;4.13;;;;;9.70;100492.00;;;;9839419;30;20215;-78
2022/12/21 12:56:41;;;;;;;12.33;4.50;;;;;9.70;100487.00;;;;9812272;30;20225;-78
2022/12/21 13:01:51;;;;;;;9.00;3.87;;;;;9.60;100488.00;;;;9831504;30;20295;-79
2022/12/21 13:07:20;;;;;;;10.93;4.10;;;;;9.80;100480.00;;;;9824845;30;20237;-78
2022/12/21 13:12:58;;;;;;;6.73;4.07;;;;;9.90;100470.00;;;;9801091;30;20714;-79
2022/12/21 13:18:12;;;;;;;10.60;3.83;;;;;10.10;100466.00;;;;9810470;30;20204;-78
2022/12/21 13:23:20;;;;;;;8.33;4.07;;;;;10.20;100454.00;;;;9809934;30;20208;-78
2022/12/21 13:28:31;;;;;;;9.97;3.60;;;;;10.20;100471.00;;;;9817289;30;20204;-78
2022/12/21 13:33:41;;;;;;;5.53;3.50;;;;;10.20;100465.00;;;;9804350;30;20225;-79
2022/12/21 13:39:05;;;;;;;7.97;3.67;;;;;10.10;100468.00;;;;9829710;30;20205;-78
2022/12/21 13:44:15;;;;;;;8.47;3.00;;;;;10.00;100450.00;;;;9821305;30;20197;-79
2022/12/21 13:49:57;;;;;;;5.93;3.27;;;;;9.80;100452.00;;;;9809231;30;20760;-78
2022/12/21 13:55:19;;;;;;;6.67;3.60;;;;;9.90;100443.00;;;;9822026;30;20255;-78
2022/12/21 14:00:29;;;;;;;5.50;3.63;;;;;10.00;100451.00;;;;9802562;30;20303;-78
2022/12/21 14:05:44;;;;;;;8.63;3.10;;;;;10.10;100432.00;;;;9803784;30;20244;-79
2022/12/21 14:11:12;;;;;;;8.27;3.00;;;;;9.90;100438.00;;;;9819043;30;20220;-78
2022/12/21 14:16:22;;;;;;;7.67;3.60;;;;;9.80;100445.00;;;;9833369;30;20212;-78
2022/12/21 14:21:27;;;;;;;5.47;3.13;;;;;9.60;100438.00;;;;9834027;30;20232;-79
2022/12/21 14:26:46;;;;;;;5.67;2.77;;;;;9.50;100433.00;;;;9817225;30;20188;-78
2022/12/21 14:32:01;;;;;;;7.37;3.23;;;;;9.40;100411.00;;;;9823349;30;20208;-78
2022/12/21 14:37:19;;;;;;;5.07;3.10;;;;;9.40;100403.00;;;;9819666;30;20322;-78
2022/12/21 14:42:33;;;;;;;8.07;2.97;;;;;9.30;100393.00;;;;9825368;30;20201;-79
2022/12/21 14:47:37;;;;;;;4.80;2.50;;;;;9.20;100397.00;;;;9820645;30;20261;-78
2022/12/21 14:53:03;;;;;;;4.23;3.20;;;;;9.30;100384.00;;;;9838455;30;20235;-78
2022/12/21 14:58:20;;;;;;;6.43;2.37;;;;;9.20;100379.00;;;;9829105;30;20716;-79
2022/12/21 15:03:23;;;;;;;6.70;3.13;;;;;9.10;100378.00;;;;9832519;30;20204;-78
2022/12/21 15:08:26;;;;;;;4.30;2.53;;;;;9.00;100374.00;;;;9839440;30;20240;-78
2022/12/21 15:13:31;;;;;;;4.23;2.53;;;;;9.00;100366.00;;;;9843910;30;20634;-78
2022/12/21 15:18:36;;;;;;;6.40;2.90;;;;;9.00;100355.00;;;;9844330;30;20295;-79
2022/12/21 15:23:39;;;;;;;4.20;2.50;;;;;8.90;100334.00;;;;9828706;30;20212;-78
2022/12/21 15:28:46;;;;;;;6.53;2.83;;;;;8.90;100340.00;;;;9824356;30;20206;-78
2022/12/21 15:33:51;;;;;;;3.47;2.27;;;;;8.80;100344.00;;;;9823597;30;20220;-78
2022/12/21 15:38:54;;;;;;;4.70;2.47;;;;;8.80;100337.00;;;;9839086;30;20236;-78
2022/12/21 15:44:19;;;;;;;3.80;2.73;;;;;8.90;100343.00;;;;9806818;30;20208;-78
2022/12/21 15:49:39;;;;;;;6.10;2.10;;;;;8.80;100325.00;;;;9826969;30;20207;-79
2022/12/21 15:54:43;;;;;;;3.07;2.60;;;;;8.90;100321.00;;;;9824525;30;20247;-78
2022/12/21 15:59:47;;;;;;;3.33;1.50;;;;;8.90;100324.00;;;;9833145;30;20227;-78
2022/12/21 16:04:50;;;;;;;2.97;2.30;;;;;8.80;100325.00;;;;9843949;30;20233;-79
2022/12/21 16:10:03;;;;;;;2.93;2.60;;;;;8.70;100326.00;;;;9834229;30;20197;-78
2022/12/21 16:15:28;;;;;;;4.40;2.90;;;;;8.60;100315.00;;;;9806508;30;20221;-79
2022/12/21 16:20:31;;;;;;;4.60;2.93;;;;;8.50;100323.00;;;;9798338;30;20215;-79
2022/12/21 16:25:35;;;;;;;4.37;2.73;;;;;8.50;100315.00;;;;9833984;30;20292;-80
2022/12/21 16:30:56;;;;;;;9.50;4.03;;;;;8.50;100299.00;;;;9810738;30;20212;-80
2022/12/21 16:36:03;;;;;;;7.33;2.87;;;;;8.50;100299.00;;;;9818581;30;20277;-80
2022/12/21 16:41:07;;;;;;;6.63;3.10;;;;;8.50;100297.00;;;;9798466;30;20248;-79
2022/12/21 16:46:09;;;;;;;4.67;2.87;;;;;8.50;100292.00;;;;9810801;30;20545;-78
2022/12/21 16:51:35;;;;;;;2.93;2.50;;;;;8.60;100285.00;;;;9844682;30;20212;-78
2022/12/21 16:56:43;;;;;;;3.80;2.33;;;;;8.60;100271.00;;;;9811025;30;20208;-79
2022/12/21 17:02:01;;;;;;;3.90;3.10;;;;;8.60;100273.00;;;;9819632;30;20204;-79
2022/12/21 17:07:20;;;;;;;4.97;2.77;;;;;8.60;100264.00;;;;9831829;30;20291;-79
2022/12/21 17:12:34;;;;;;;5.07;2.93;;;;;8.60;100264.00;;;;9794500;30;20716;-79
2022/12/21 17:17:44;;;;;;;6.80;3.10;;;;;8.60;100253.00;;;;9832646;30;20280;-80
2022/12/21 17:22:57;;;;;;;3.93;2.80;;;;;8.60;100241.00;;;;9827603;30;20287;-78
2022/12/21 17:28:00;;;;;;;4.43;2.50;;;;;8.60;100241.00;;;;9830619;30;20204;-78
2022/12/21 17:33:22;;;;;;;4.37;2.50;;;;;8.70;100239.00;;;;9831398;30;20251;-78
2022/12/21 17:38:24;;;;;;;2.60;2.37;;;;;8.70;100242.00;;;;9846014;30;20208;-78
2022/12/21 17:43:26;;;;;;;3.87;2.77;;;;;8.70;100245.00;;;;9829896;30;20220;-78
2022/12/21 17:48:29;;;;;;;5.40;3.43;;;;;8.70;100234.00;;;;9833366;30;20645;-78
2022/12/21 17:53:31;;;;;;;3.90;2.60;;;;;8.70;100227.00;;;;9816353;30;20221;-80
2022/12/21 17:58:33;;;;;;;3.80;2.60;;;;;8.70;100224.00;;;;9827467;30;20209;-80
2022/12/21 18:03:35;;;;;;;4.23;3.17;;;;;8.70;100219.00;;;;9828708;30;20193;-79
2022/12/21 18:08:38;;;;;;;5.33;2.70;;;;;8.70;100216.00;;;;9788533;30;20264;-78
2022/12/21 18:13:41;;;;;;;5.00;3.20;;;;;8.70;100217.00;;;;9831882;30;20217;-78
2022/12/21 18:18:43;;;;;;;4.50;2.73;;;;;8.70;100191.00;;;;9843032;30;20197;-79
2022/12/21 18:23:47;;;;;;;2.53;2.20;;;;;8.70;100189.00;;;;9835162;30;20196;-78
2022/12/21 18:28:52;;;;;;;3.83;2.87;;;;;8.80;100188.00;;;;9837871;30;20323;-79
2022/12/21 18:33:57;;;;;;;3.57;2.30;;;;;8.80;100177.00;;;;9820907;30;20227;-78
2022/12/21 18:39:00;;;;;;;3.20;2.73;;;;;8.90;100180.00;;;;9830297;30;20201;-78
2022/12/21 18:44:02;;;;;;;4.97;3.07;;;;;8.90;100160.00;;;;9830106;30;20192;-79
2022/12/21 18:49:09;;;;;;;4.77;3.17;;;;;8.90;100164.00;;;;9837394;30;20539;-78
2022/12/21 18:54:17;;;;;;;2.97;2.77;;;;;9.00;100165.00;;;;9839347;30;20231;-79
2022/12/21 18:59:19;;;;;;;5.63;3.13;;;;;9.00;100168.00;;;;9846715;30;20244;-79
2022/12/21 19:04:27;;;;;;;4.47;3.27;;;;;9.00;100173.00;;;;9837485;30;20250;-77
2022/12/21 19:09:28;;;;;;;3.17;2.87;;;;;9.10;100154.00;;;;9837413;30;20213;-78
2022/12/21 19:14:31;;;;;;;3.73;3.33;;;;;9.10;100157.00;;;;9852149;30;20224;-78
2022/12/21 19:19:33;;;;;;;4.83;3.40;;;;;9.20;100158.00;;;;9825344;30;20214;-78
2022/12/21 19:24:35;;;;;;;4.83;3.73;;;;;9.20;100157.00;;;;9838883;30;20196;-78
2022/12/21 19:29:37;;;;;;;4.23;3.27;;;;;9.20;100143.00;;;;9839353;30;20620;-78
2022/12/21 19:34:39;;;;;;;10.97;5.50;;;;;9.20;100147.00;;;;9812810;30;20228;-78
2022/12/21 19:39:44;;;;;;;4.90;3.57;;;;;9.20;100147.00;;;;9834772;30;20243;-78
2022/12/21 19:44:47;;;;;;;3.97;3.30;;;;;9.20;100144.00;;;;9838766;30;20204;-78
2022/12/21 19:49:49;;;;;;;6.70;3.97;;;;;9.30;100141.00;;;;9821576;30;20249;-77
2022/12/21 19:54:51;;;;;;;4.67;3.83;;;;;9.30;100118.00;;;;9821837;30;20224;-78
2022/12/21 19:59:53;;;;;;;5.80;4.73;;;;;9.30;100119.00;;;;9816953;30;20215;-78
2022/12/21 20:04:55;;;;;;;5.87;4.30;;;;;9.30;100126.00;;;;9835333;30;20270;-79
2022/12/21 20:09:57;;;;;;;5.40;4.70;;;;;9.30;100112.00;;;;9836964;30;20219;-79
2022/12/21 20:14:59;;;;;;;7.40;4.90;;;;;9.40;100113.00;;;;9835238;30;20204;-78
2022/12/21 20:20:01;;;;;;;6.57;4.60;;;;;9.40;100097.00;;;;9851389;30;20295;-78
2022/12/21 20:25:03;;;;;;;5.73;4.70;;;;;9.40;100083.00;;;;9864905;30;20227;-78
2022/12/21 20:30:13;;;;;;;6.00;5.13;;;;;9.40;100078.00;;;;9819712;30;20214;-77
2022/12/21 20:35:16;;;;;;;5.73;4.97;;;;;9.40;100067.00;;;;9835702;30;20212;-78
2022/12/21 20:40:38;;;;;;;6.30;5.67;;;;;9.40;100046.00;;;;9852932;30;20208;-77
2022/12/21 20:45:41;;;;;;;6.63;4.23;;;;;9.40;100033.00;;;;9830705;30;20198;-78
2022/12/21 20:50:44;;;;;;;7.33;4.93;;;;;9.40;100044.00;;;;9827135;30;20240;-78
2022/12/21 21:01:18;;;;;;;7.07;4.23;;;;;9.50;100035.00;;;;9845698;30;20207;-77
2022/12/21 21:06:20;;;;;;;5.23;3.90;;;;;9.50;100042.00;;;;9845699;30;20260;-79
2022/12/21 21:16:43;;;;;;;3.90;3.20;;;;;9.60;100017.00;;;;9836400;30;20719;-78
2022/12/21 21:27:12;;;;;;;4.63;3.60;;;;;9.60;99999.00;;;;9822898;30;20673;-77
2022/12/21 21:32:14;;;;;;;6.43;3.67;;;;;9.60;99999.00;;;;9832219;30;20299;-77
2022/12/21 21:37:16;;;;;;;3.93;3.50;;;;;9.70;99999.00;;;;9853815;30;20220;-78
2022/12/21 21:42:18;;;;;;;5.33;3.30;;;;;9.70;100010.00;;;;9823985;30;20197;-78
2022/12/21 21:47:36;;;;;;;3.67;3.27;;;;;9.70;100013.00;;;;9821976;30;20239;-78
2022/12/21 21:52:38;;;;;;;5.03;3.70;;;;;9.70;100010.00;;;;9850043;30;20256;-78
2022/12/21 21:57:42;;;;;;;6.57;3.73;;;;;9.70;100005.00;;;;9833333;30;20228;-78
2022/12/21 22:02:49;;;;;;;4.30;3.40;;;;;9.70;99989.00;;;;9835577;30;20780;-78
2022/12/21 22:07:52;;;;;;;4.67;3.90;;;;;9.70;99993.00;;;;9821323;30;20225;-77
2022/12/21 22:13:15;;;;;;;4.73;3.93;;;;;9.70;99979.00;;;;9838614;30;20209;-78
2022/12/21 22:18:25;;;;;;;6.40;3.80;;;;;9.70;99971.00;;;;9835860;30;20200;-78
2022/12/21 22:34:08;;;;;;;5.47;3.97;;;;;9.80;99965.00;;;;9850064;30;20223;-79
2022/12/21 22:44:34;;;;;;;5.80;4.73;;;;;9.90;99948.00;;;;9847773;30;20192;-78
2022/12/21 22:49:36;;;;;;;4.77;3.80;;;;;9.90;99949.00;;;;9848842;30;20209;-78
2022/12/21 22:54:37;;;;;;;5.60;4.57;;;;;9.90;99943.00;;;;9833851;30;20942;-78
2022/12/21 22:59:40;;;;;;;5.40;4.33;;;;;9.90;99930.00;;;;9818867;30;20259;-78
2022/12/21 23:04:41;;;;;;;6.07;4.90;;;;;10.00;99916.00;;;;9844906;30;20220;-78
2022/12/21 23:09:43;;;;;;;6.47;5.30;;;;;10.00;99902.00;;;;9832950;30;20688;-78
2022/12/21 23:14:48;;;;;;;8.57;5.50;;;;;10.00;99902.00;;;;9859562;30;20216;-78
2022/12/21 23:19:50;;;;;;;7.23;5.97;;;;;10.00;99895.00;;;;9824944;30;20211;-78
